CheckWX is a tool to help pilots better visualize weather data.  It is not intended as a substitute for an official pre-flight weather briefing.

22:57:07 UTC

KLGA METAR
Laguardia Airport
New York, New York, USA
Current

1 hour ago

KLGA 222151Z 08007KT 10SM FEW095 BKN180 23/M01 A3019 RMK AO2 SLP224 T02331011 $
Observed
May-22 @ 21:51 UTC
Wind
  • 080° at 7 KTS
Visibility
10 SM
Flight Rules
VFR
Cloud Levels
  • Few at 9,500' AGL
  • Broken at 18,000' AGL
Temperature
23°C / 73°F
Dewpoint
-1°C / 30°F
Humidity
20%
Altimeter
30.19" Hg
Pressure
1022.32 hPa
Previous

2 hours ago

KLGA 222051Z 08006KT 10SM FEW095 BKN250 23/M01 A3020 RMK AO2 SLP227 T02331011 58002 $
Observed
May-22 @ 20:51 UTC
Wind
  • 080° at 6 KTS
Visibility
10 SM
Flight Rules
VFR
Cloud Levels
  • Few at 9,500' AGL
  • Broken at 25,000' AGL
Temperature
23°C / 73°F
Dewpoint
-1°C / 30°F
Humidity
20%
Altimeter
30.2" Hg
Pressure
1022.72 hPa
Previous

3 hours ago

KLGA 221951Z 01006KT 10SM FEW095 BKN250 23/00 A3020 RMK AO2 SLP226 T02330000 $
Observed
May-22 @ 19:51 UTC
Wind
  • 010° at 6 KTS
Visibility
10 SM
Flight Rules
VFR
Cloud Levels
  • Few at 9,500' AGL
  • Broken at 25,000' AGL
Temperature
23°C / 73°F
Dewpoint
C / 32°F
Humidity
22%
Altimeter
30.2" Hg
Pressure
1022.72 hPa